sensor_id;sensor_type;location;lat;lon;timestamp;P1;durP1;ratioP1;P2;durP2;ratioP2
77591;SDS011;66891;46.884;17.436;2023-06-05T00:00:23;10.10;;;4.43;;
77591;SDS011;66891;46.884;17.436;2023-06-05T00:02:51;12.05;;;4.95;;
77591;SDS011;66891;46.884;17.436;2023-06-05T00:05:18;10.37;;;5.00;;
77591;SDS011;66891;46.884;17.436;2023-06-05T00:07:47;9.80;;;4.93;;
77591;SDS011;66891;46.884;17.436;2023-06-05T00:10:14;10.00;;;4.90;;
77591;SDS011;66891;46.884;17.436;2023-06-05T00:12:42;11.45;;;4.53;;
77591;SDS011;66891;46.884;17.436;2023-06-05T00:15:10;12.00;;;5.13;;
77591;SDS011;66891;46.884;17.436;2023-06-05T00:17:37;11.67;;;4.93;;
77591;SDS011;66891;46.884;17.436;2023-06-05T00:20:05;10.77;;;5.03;;
77591;SDS011;66891;46.884;17.436;2023-06-05T00:22:37;10.93;;;5.28;;
77591;SDS011;66891;46.884;17.436;2023-06-05T00:25:07;11.70;;;5.13;;
77591;SDS011;66891;46.884;17.436;2023-06-05T00:27:35;11.63;;;4.75;;
77591;SDS011;66891;46.884;17.436;2023-06-05T00:30:03;10.10;;;4.53;;
77591;SDS011;66891;46.884;17.436;2023-06-05T00:32:30;9.80;;;4.90;;
77591;SDS011;66891;46.884;17.436;2023-06-05T00:34:58;9.73;;;4.38;;
77591;SDS011;66891;46.884;17.436;2023-06-05T00:37:25;11.90;;;5.50;;
77591;SDS011;66891;46.884;17.436;2023-06-05T00:39:53;10.80;;;5.40;;
77591;SDS011;66891;46.884;17.436;2023-06-05T00:42:22;12.47;;;4.63;;
77591;SDS011;66891;46.884;17.436;2023-06-05T00:44:49;9.88;;;4.57;;
77591;SDS011;66891;46.884;17.436;2023-06-05T00:47:17;12.38;;;5.38;;
77591;SDS011;66891;46.884;17.436;2023-06-05T00:49:44;13.77;;;5.82;;
77591;SDS011;66891;46.884;17.436;2023-06-05T00:52:12;13.20;;;5.32;;
77591;SDS011;66891;46.884;17.436;2023-06-05T00:54:39;13.17;;;5.67;;
77591;SDS011;66891;46.884;17.436;2023-06-05T00:57:07;12.77;;;5.55;;
77591;SDS011;66891;46.884;17.436;2023-06-05T00:59:36;11.70;;;5.75;;
77591;SDS011;66891;46.884;17.436;2023-06-05T01:02:04;12.43;;;5.65;;
77591;SDS011;66891;46.884;17.436;2023-06-05T01:04:33;13.00;;;5.63;;
77591;SDS011;66891;46.884;17.436;2023-06-05T01:07:03;11.50;;;5.80;;
77591;SDS011;66891;46.884;17.436;2023-06-05T01:09:31;12.82;;;5.80;;
77591;SDS011;66891;46.884;17.436;2023-06-05T01:11:58;11.30;;;5.68;;
77591;SDS011;66891;46.884;17.436;2023-06-05T01:14:33;12.27;;;6.22;;
77591;SDS011;66891;46.884;17.436;2023-06-05T01:17:05;13.10;;;5.90;;
77591;SDS011;66891;46.884;17.436;2023-06-05T01:19:35;12.17;;;5.83;;
77591;SDS011;66891;46.884;17.436;2023-06-05T01:22:06;12.77;;;6.90;;
77591;SDS011;66891;46.884;17.436;2023-06-05T01:24:35;11.40;;;5.50;;
77591;SDS011;66891;46.884;17.436;2023-06-05T01:27:04;12.13;;;5.47;;
77591;SDS011;66891;46.884;17.436;2023-06-05T01:29:38;11.02;;;5.95;;
77591;SDS011;66891;46.884;17.436;2023-06-05T01:32:11;12.43;;;5.73;;
77591;SDS011;66891;46.884;17.436;2023-06-05T01:34:43;13.45;;;5.60;;
77591;SDS011;66891;46.884;17.436;2023-06-05T01:37:11;11.38;;;5.65;;
77591;SDS011;66891;46.884;17.436;2023-06-05T01:39:42;12.18;;;5.60;;
77591;SDS011;66891;46.884;17.436;2023-06-05T01:42:12;10.07;;;5.45;;
77591;SDS011;66891;46.884;17.436;2023-06-05T01:44:40;11.63;;;5.90;;
77591;SDS011;66891;46.884;17.436;2023-06-05T01:47:09;11.23;;;6.10;;
77591;SDS011;66891;46.884;17.436;2023-06-05T01:49:37;13.32;;;5.70;;
77591;SDS011;66891;46.884;17.436;2023-06-05T01:52:05;11.68;;;5.32;;
77591;SDS011;66891;46.884;17.436;2023-06-05T01:54:32;13.30;;;6.07;;
77591;SDS011;66891;46.884;17.436;2023-06-05T01:57:02;11.00;;;5.90;;
77591;SDS011;66891;46.884;17.436;2023-06-05T01:59:31;10.90;;;5.65;;
77591;SDS011;66891;46.884;17.436;2023-06-05T02:02:00;12.68;;;6.00;;
77591;SDS011;66891;46.884;17.436;2023-06-05T02:04:30;12.18;;;6.25;;
77591;SDS011;66891;46.884;17.436;2023-06-05T02:06:58;13.07;;;6.88;;
77591;SDS011;66891;46.884;17.436;2023-06-05T02:09:30;13.50;;;7.07;;
77591;SDS011;66891;46.884;17.436;2023-06-05T02:12:01;12.80;;;6.20;;
77591;SDS011;66891;46.884;17.436;2023-06-05T02:14:30;12.63;;;6.60;;
77591;SDS011;66891;46.884;17.436;2023-06-05T02:16:59;13.23;;;6.93;;
77591;SDS011;66891;46.884;17.436;2023-06-05T02:19:26;13.68;;;7.05;;
77591;SDS011;66891;46.884;17.436;2023-06-05T02:21:53;13.87;;;7.27;;
77591;SDS011;66891;46.884;17.436;2023-06-05T02:24:21;14.07;;;6.70;;
77591;SDS011;66891;46.884;17.436;2023-06-05T02:26:49;11.80;;;6.55;;
77591;SDS011;66891;46.884;17.436;2023-06-05T02:29:18;13.32;;;6.70;;
77591;SDS011;66891;46.884;17.436;2023-06-05T02:31:45;13.07;;;7.05;;
77591;SDS011;66891;46.884;17.436;2023-06-05T02:34:12;12.07;;;6.73;;
77591;SDS011;66891;46.884;17.436;2023-06-05T02:36:40;16.23;;;7.05;;
77591;SDS011;66891;46.884;17.436;2023-06-05T02:39:09;12.38;;;6.97;;
77591;SDS011;66891;46.884;17.436;2023-06-05T02:41:37;11.98;;;6.18;;
77591;SDS011;66891;46.884;17.436;2023-06-05T02:44:04;13.57;;;6.78;;
77591;SDS011;66891;46.884;17.436;2023-06-05T02:46:33;12.07;;;6.73;;
77591;SDS011;66891;46.884;17.436;2023-06-05T02:49:00;11.82;;;6.68;;
77591;SDS011;66891;46.884;17.436;2023-06-05T02:51:27;12.93;;;6.55;;
77591;SDS011;66891;46.884;17.436;2023-06-05T02:53:55;12.45;;;6.22;;
77591;SDS011;66891;46.884;17.436;2023-06-05T02:56:22;12.32;;;6.07;;
77591;SDS011;66891;46.884;17.436;2023-06-05T02:58:53;11.40;;;5.70;;
77591;SDS011;66891;46.884;17.436;2023-06-05T03:01:23;13.07;;;6.15;;
77591;SDS011;66891;46.884;17.436;2023-06-05T03:03:53;13.13;;;6.30;;
77591;SDS011;66891;46.884;17.436;2023-06-05T03:06:23;12.93;;;6.25;;
77591;SDS011;66891;46.884;17.436;2023-06-05T03:08:54;12.70;;;6.07;;
77591;SDS011;66891;46.884;17.436;2023-06-05T03:11:22;12.77;;;5.90;;
77591;SDS011;66891;46.884;17.436;2023-06-05T03:13:52;13.20;;;5.97;;
77591;SDS011;66891;46.884;17.436;2023-06-05T03:16:19;13.13;;;6.40;;
77591;SDS011;66891;46.884;17.436;2023-06-05T03:18:46;11.05;;;5.63;;
77591;SDS011;66891;46.884;17.436;2023-06-05T03:21:15;12.32;;;5.65;;
77591;SDS011;66891;46.884;17.436;2023-06-05T03:23:43;12.67;;;5.73;;
77591;SDS011;66891;46.884;17.436;2023-06-05T03:26:10;14.10;;;6.05;;
77591;SDS011;66891;46.884;17.436;2023-06-05T03:28:37;12.68;;;5.80;;
77591;SDS011;66891;46.884;17.436;2023-06-05T03:31:05;11.15;;;5.53;;
77591;SDS011;66891;46.884;17.436;2023-06-05T03:33:33;12.60;;;5.97;;
77591;SDS011;66891;46.884;17.436;2023-06-05T03:36:00;11.70;;;5.87;;
77591;SDS011;66891;46.884;17.436;2023-06-05T03:38:30;13.20;;;5.70;;
77591;SDS011;66891;46.884;17.436;2023-06-05T03:40:57;12.73;;;5.60;;
77591;SDS011;66891;46.884;17.436;2023-06-05T03:43:25;11.77;;;5.63;;
77591;SDS011;66891;46.884;17.436;2023-06-05T03:45:52;11.73;;;5.30;;
77591;SDS011;66891;46.884;17.436;2023-06-05T03:48:19;12.10;;;6.03;;
77591;SDS011;66891;46.884;17.436;2023-06-05T03:50:47;11.32;;;5.63;;
77591;SDS011;66891;46.884;17.436;2023-06-05T03:53:18;13.40;;;6.50;;
77591;SDS011;66891;46.884;17.436;2023-06-05T03:55:47;13.07;;;7.10;;
77591;SDS011;66891;46.884;17.436;2023-06-05T03:58:17;14.18;;;6.38;;
77591;SDS011;66891;46.884;17.436;2023-06-05T04:00:46;14.50;;;6.30;;
77591;SDS011;66891;46.884;17.436;2023-06-05T04:03:15;12.60;;;6.28;;
77591;SDS011;66891;46.884;17.436;2023-06-05T04:05:43;13.35;;;6.40;;
77591;SDS011;66891;46.884;17.436;2023-06-05T04:08:12;12.45;;;6.15;;
77591;SDS011;66891;46.884;17.436;2023-06-05T04:13:38;12.23;;;6.33;;
77591;SDS011;66891;46.884;17.436;2023-06-05T04:16:06;11.75;;;6.28;;
77591;SDS011;66891;46.884;17.436;2023-06-05T04:18:33;12.48;;;6.38;;
77591;SDS011;66891;46.884;17.436;2023-06-05T04:21:01;11.95;;;6.50;;
77591;SDS011;66891;46.884;17.436;2023-06-05T04:23:28;15.73;;;6.93;;
77591;SDS011;66891;46.884;17.436;2023-06-05T04:25:56;13.90;;;6.80;;
77591;SDS011;66891;46.884;17.436;2023-06-05T04:28:23;14.40;;;6.63;;
77591;SDS011;66891;46.884;17.436;2023-06-05T04:30:52;13.15;;;7.10;;
77591;SDS011;66891;46.884;17.436;2023-06-05T04:33:20;13.68;;;7.60;;
77591;SDS011;66891;46.884;17.436;2023-06-05T04:35:47;13.60;;;7.13;;
77591;SDS011;66891;46.884;17.436;2023-06-05T04:38:15;12.50;;;6.30;;
77591;SDS011;66891;46.884;17.436;2023-06-05T04:40:47;11.98;;;6.20;;
77591;SDS011;66891;46.884;17.436;2023-06-05T04:43:15;12.07;;;5.60;;
77591;SDS011;66891;46.884;17.436;2023-06-05T04:45:42;11.52;;;5.40;;
77591;SDS011;66891;46.884;17.436;2023-06-05T04:48:11;10.13;;;5.63;;
77591;SDS011;66891;46.884;17.436;2023-06-05T04:50:38;12.77;;;6.53;;
77591;SDS011;66891;46.884;17.436;2023-06-05T04:53:06;11.10;;;5.05;;
77591;SDS011;66891;46.884;17.436;2023-06-05T04:55:34;10.55;;;4.88;;
77591;SDS011;66891;46.884;17.436;2023-06-05T04:58:02;10.07;;;5.55;;
77591;SDS011;66891;46.884;17.436;2023-06-05T05:00:31;11.43;;;4.80;;
77591;SDS011;66891;46.884;17.436;2023-06-05T05:02:59;10.97;;;5.23;;
77591;SDS011;66891;46.884;17.436;2023-06-05T05:05:32;11.77;;;4.82;;
77591;SDS011;66891;46.884;17.436;2023-06-05T05:08:01;10.70;;;5.57;;
77591;SDS011;66891;46.884;17.436;2023-06-05T05:10:29;10.52;;;5.35;;
77591;SDS011;66891;46.884;17.436;2023-06-05T05:12:57;10.73;;;5.65;;
77591;SDS011;66891;46.884;17.436;2023-06-05T05:15:28;11.00;;;6.37;;
77591;SDS011;66891;46.884;17.436;2023-06-05T05:17:58;11.02;;;5.63;;
77591;SDS011;66891;46.884;17.436;2023-06-05T05:20:26;15.50;;;6.60;;
77591;SDS011;66891;46.884;17.436;2023-06-05T05:22:55;11.57;;;5.40;;
77591;SDS011;66891;46.884;17.436;2023-06-05T05:25:26;11.30;;;5.57;;
77591;SDS011;66891;46.884;17.436;2023-06-05T05:27:54;13.50;;;6.43;;
77591;SDS011;66891;46.884;17.436;2023-06-05T05:30:21;14.18;;;5.80;;
77591;SDS011;66891;46.884;17.436;2023-06-05T05:32:48;10.98;;;5.22;;
77591;SDS011;66891;46.884;17.436;2023-06-05T05:35:16;10.75;;;5.60;;
77591;SDS011;66891;46.884;17.436;2023-06-05T05:37:43;11.85;;;6.10;;
77591;SDS011;66891;46.884;17.436;2023-06-05T05:40:13;12.67;;;6.00;;
77591;SDS011;66891;46.884;17.436;2023-06-05T05:42:41;11.40;;;6.18;;
77591;SDS011;66891;46.884;17.436;2023-06-05T05:45:08;12.45;;;6.13;;
77591;SDS011;66891;46.884;17.436;2023-06-05T05:47:36;12.57;;;6.38;;
77591;SDS011;66891;46.884;17.436;2023-06-05T05:50:04;12.13;;;6.30;;
77591;SDS011;66891;46.884;17.436;2023-06-05T05:52:32;10.33;;;5.83;;
77591;SDS011;66891;46.884;17.436;2023-06-05T05:55:03;10.70;;;5.00;;
77591;SDS011;66891;46.884;17.436;2023-06-05T05:57:33;11.70;;;5.60;;
77591;SDS011;66891;46.884;17.436;2023-06-05T06:00:00;10.90;;;5.00;;
77591;SDS011;66891;46.884;17.436;2023-06-05T06:02:28;13.85;;;5.93;;
77591;SDS011;66891;46.884;17.436;2023-06-05T06:04:55;13.90;;;6.33;;
77591;SDS011;66891;46.884;17.436;2023-06-05T06:07:23;10.65;;;5.32;;
77591;SDS011;66891;46.884;17.436;2023-06-05T06:09:50;10.55;;;5.30;;
77591;SDS011;66891;46.884;17.436;2023-06-05T06:12:25;11.40;;;5.35;;
77591;SDS011;66891;46.884;17.436;2023-06-05T06:14:56;10.82;;;4.65;;
77591;SDS011;66891;46.884;17.436;2023-06-05T06:17:23;13.47;;;5.50;;
77591;SDS011;66891;46.884;17.436;2023-06-05T06:19:51;11.70;;;5.18;;
77591;SDS011;66891;46.884;17.436;2023-06-05T06:22:19;12.30;;;6.30;;
77591;SDS011;66891;46.884;17.436;2023-06-05T06:24:47;10.95;;;5.30;;
77591;SDS011;66891;46.884;17.436;2023-06-05T06:27:17;11.55;;;3.97;;
77591;SDS011;66891;46.884;17.436;2023-06-05T06:30:02;9.60;;;4.10;;
77591;SDS011;66891;46.884;17.436;2023-06-05T06:32:35;10.13;;;4.80;;
77591;SDS011;66891;46.884;17.436;2023-06-05T06:35:03;11.82;;;3.85;;
77591;SDS011;66891;46.884;17.436;2023-06-05T06:37:33;8.95;;;3.22;;
77591;SDS011;66891;46.884;17.436;2023-06-05T06:40:00;9.10;;;3.05;;
77591;SDS011;66891;46.884;17.436;2023-06-05T06:42:30;9.63;;;3.40;;
77591;SDS011;66891;46.884;17.436;2023-06-05T06:44:57;8.73;;;3.60;;
77591;SDS011;66891;46.884;17.436;2023-06-05T06:47:26;12.18;;;4.50;;
77591;SDS011;66891;46.884;17.436;2023-06-05T06:49:56;9.88;;;4.05;;
77591;SDS011;66891;46.884;17.436;2023-06-05T06:52:38;10.10;;;4.00;;
77591;SDS011;66891;46.884;17.436;2023-06-05T06:55:06;12.07;;;3.90;;
77591;SDS011;66891;46.884;17.436;2023-06-05T06:57:36;11.70;;;4.32;;
77591;SDS011;66891;46.884;17.436;2023-06-05T07:00:05;11.63;;;4.22;;
77591;SDS011;66891;46.884;17.436;2023-06-05T07:02:39;20.67;;;4.00;;
77591;SDS011;66891;46.884;17.436;2023-06-05T07:05:07;16.40;;;3.92;;
77591;SDS011;66891;46.884;17.436;2023-06-05T07:07:34;13.50;;;3.93;;
77591;SDS011;66891;46.884;17.436;2023-06-05T07:10:02;12.45;;;3.70;;
77591;SDS011;66891;46.884;17.436;2023-06-05T07:12:30;7.60;;;3.50;;
77591;SDS011;66891;46.884;17.436;2023-06-05T07:14:58;8.20;;;3.65;;
77591;SDS011;66891;46.884;17.436;2023-06-05T07:17:26;8.88;;;3.83;;
77591;SDS011;66891;46.884;17.436;2023-06-05T07:19:57;9.00;;;3.60;;
77591;SDS011;66891;46.884;17.436;2023-06-05T07:22:25;9.73;;;3.63;;
77591;SDS011;66891;46.884;17.436;2023-06-05T07:24:54;8.88;;;3.47;;
77591;SDS011;66891;46.884;17.436;2023-06-05T07:27:22;10.10;;;3.17;;
77591;SDS011;66891;46.884;17.436;2023-06-05T07:29:49;14.63;;;3.33;;
77591;SDS011;66891;46.884;17.436;2023-06-05T07:32:20;9.10;;;3.13;;
77591;SDS011;66891;46.884;17.436;2023-06-05T07:34:49;9.23;;;3.05;;
77591;SDS011;66891;46.884;17.436;2023-06-05T07:37:19;11.73;;;3.10;;
77591;SDS011;66891;46.884;17.436;2023-06-05T07:39:47;15.13;;;4.18;;
77591;SDS011;66891;46.884;17.436;2023-06-05T07:42:17;11.80;;;2.97;;
77591;SDS011;66891;46.884;17.436;2023-06-05T07:44:49;6.93;;;2.20;;
77591;SDS011;66891;46.884;17.436;2023-06-05T07:47:17;7.50;;;2.60;;
77591;SDS011;66891;46.884;17.436;2023-06-05T07:49:44;11.23;;;3.38;;
77591;SDS011;66891;46.884;17.436;2023-06-05T07:52:24;7.35;;;2.55;;
77591;SDS011;66891;46.884;17.436;2023-06-05T07:54:52;7.32;;;2.90;;
77591;SDS011;66891;46.884;17.436;2023-06-05T07:57:20;6.87;;;2.80;;
77591;SDS011;66891;46.884;17.436;2023-06-05T07:59:47;7.95;;;2.75;;
77591;SDS011;66891;46.884;17.436;2023-06-05T08:02:16;9.00;;;2.95;;
77591;SDS011;66891;46.884;17.436;2023-06-05T08:04:44;9.93;;;3.40;;
77591;SDS011;66891;46.884;17.436;2023-06-05T08:07:11;9.82;;;3.00;;
77591;SDS011;66891;46.884;17.436;2023-06-05T08:09:41;10.47;;;3.00;;
77591;SDS011;66891;46.884;17.436;2023-06-05T08:12:08;8.57;;;3.40;;
77591;SDS011;66891;46.884;17.436;2023-06-05T08:14:37;9.57;;;3.17;;
77591;SDS011;66891;46.884;17.436;2023-06-05T08:17:05;9.45;;;2.97;;
77591;SDS011;66891;46.884;17.436;2023-06-05T08:19:32;9.88;;;3.20;;
77591;SDS011;66891;46.884;17.436;2023-06-05T08:22:00;7.57;;;2.77;;
77591;SDS011;66891;46.884;17.436;2023-06-05T08:24:27;8.15;;;2.72;;
77591;SDS011;66891;46.884;17.436;2023-06-05T08:26:57;6.85;;;2.90;;
77591;SDS011;66891;46.884;17.436;2023-06-05T08:29:27;8.43;;;3.47;;
77591;SDS011;66891;46.884;17.436;2023-06-05T08:31:55;7.32;;;3.33;;
77591;SDS011;66891;46.884;17.436;2023-06-05T08:34:23;9.70;;;3.17;;
77591;SDS011;66891;46.884;17.436;2023-06-05T08:36:52;9.60;;;3.17;;
77591;SDS011;66891;46.884;17.436;2023-06-05T08:39:20;11.90;;;3.45;;
77591;SDS011;66891;46.884;17.436;2023-06-05T08:41:51;9.95;;;2.95;;
77591;SDS011;66891;46.884;17.436;2023-06-05T08:44:29;8.30;;;3.10;;
77591;SDS011;66891;46.884;17.436;2023-06-05T08:46:59;19.07;;;3.83;;
77591;SDS011;66891;46.884;17.436;2023-06-05T08:49:28;10.45;;;3.10;;
77591;SDS011;66891;46.884;17.436;2023-06-05T08:51:57;9.00;;;3.65;;
77591;SDS011;66891;46.884;17.436;2023-06-05T08:54:31;11.13;;;3.10;;
77591;SDS011;66891;46.884;17.436;2023-06-05T08:57:01;8.05;;;3.45;;
77591;SDS011;66891;46.884;17.436;2023-06-05T08:59:31;7.97;;;3.30;;
77591;SDS011;66891;46.884;17.436;2023-06-05T09:01:58;8.00;;;2.67;;
77591;SDS011;66891;46.884;17.436;2023-06-05T09:04:26;12.43;;;3.40;;
77591;SDS011;66891;46.884;17.436;2023-06-05T09:06:57;9.13;;;3.70;;
77591;SDS011;66891;46.884;17.436;2023-06-05T09:09:24;16.65;;;4.97;;
77591;SDS011;66891;46.884;17.436;2023-06-05T09:12:02;9.17;;;2.73;;
77591;SDS011;66891;46.884;17.436;2023-06-05T09:14:32;7.95;;;2.95;;
77591;SDS011;66891;46.884;17.436;2023-06-05T09:17:00;8.93;;;2.47;;
77591;SDS011;66891;46.884;17.436;2023-06-05T09:19:34;8.40;;;3.10;;
77591;SDS011;66891;46.884;17.436;2023-06-05T09:22:03;8.57;;;3.15;;
77591;SDS011;66891;46.884;17.436;2023-06-05T09:24:32;8.40;;;3.13;;
77591;SDS011;66891;46.884;17.436;2023-06-05T09:27:01;10.15;;;3.85;;
77591;SDS011;66891;46.884;17.436;2023-06-05T09:29:32;10.55;;;3.53;;
77591;SDS011;66891;46.884;17.436;2023-06-05T09:32:02;11.73;;;3.85;;
77591;SDS011;66891;46.884;17.436;2023-06-05T09:34:30;8.80;;;4.13;;
77591;SDS011;66891;46.884;17.436;2023-06-05T09:36:59;21.13;;;4.23;;
77591;SDS011;66891;46.884;17.436;2023-06-05T09:39:28;12.45;;;3.53;;
77591;SDS011;66891;46.884;17.436;2023-06-05T09:41:57;26.73;;;5.32;;
77591;SDS011;66891;46.884;17.436;2023-06-05T09:44:25;9.50;;;3.83;;
77591;SDS011;66891;46.884;17.436;2023-06-05T09:46:56;27.23;;;4.97;;
77591;SDS011;66891;46.884;17.436;2023-06-05T09:49:25;30.30;;;5.00;;
77591;SDS011;66891;46.884;17.436;2023-06-05T09:51:55;20.80;;;4.40;;
77591;SDS011;66891;46.884;17.436;2023-06-05T09:54:28;9.27;;;3.42;;
77591;SDS011;66891;46.884;17.436;2023-06-05T09:56:57;9.43;;;3.40;;
77591;SDS011;66891;46.884;17.436;2023-06-05T09:59:27;16.80;;;3.47;;
77591;SDS011;66891;46.884;17.436;2023-06-05T10:01:59;8.30;;;3.33;;
77591;SDS011;66891;46.884;17.436;2023-06-05T10:04:27;11.13;;;2.95;;
77591;SDS011;66891;46.884;17.436;2023-06-05T10:07:00;7.75;;;3.03;;
77591;SDS011;66891;46.884;17.436;2023-06-05T10:09:31;10.10;;;3.13;;
77591;SDS011;66891;46.884;17.436;2023-06-05T10:11:58;7.07;;;2.95;;
77591;SDS011;66891;46.884;17.436;2023-06-05T10:14:26;8.67;;;3.00;;
77591;SDS011;66891;46.884;17.436;2023-06-05T10:16:54;8.65;;;2.97;;
77591;SDS011;66891;46.884;17.436;2023-06-05T10:19:24;7.45;;;3.47;;
77591;SDS011;66891;46.884;17.436;2023-06-05T10:21:51;6.50;;;2.63;;
77591;SDS011;66891;46.884;17.436;2023-06-05T10:24:20;9.13;;;3.10;;
77591;SDS011;66891;46.884;17.436;2023-06-05T10:33:20;18.35;;;4.00;;
77591;SDS011;66891;46.884;17.436;2023-06-05T10:36:02;8.52;;;3.15;;
77591;SDS011;66891;46.884;17.436;2023-06-05T10:38:40;11.18;;;3.90;;
77591;SDS011;66891;46.884;17.436;2023-06-05T10:41:11;8.37;;;3.23;;
77591;SDS011;66891;46.884;17.436;2023-06-05T10:43:46;8.95;;;3.33;;
77591;SDS011;66891;46.884;17.436;2023-06-05T10:46:30;12.98;;;4.63;;
77591;SDS011;66891;46.884;17.436;2023-06-05T10:49:05;17.00;;;4.97;;
77591;SDS011;66891;46.884;17.436;2023-06-05T10:51:38;7.80;;;3.35;;
77591;SDS011;66891;46.884;17.436;2023-06-05T10:54:08;11.50;;;2.87;;
77591;SDS011;66891;46.884;17.436;2023-06-05T10:56:56;8.70;;;2.97;;
77591;SDS011;66891;46.884;17.436;2023-06-05T10:59:33;9.88;;;4.05;;
77591;SDS011;66891;46.884;17.436;2023-06-05T11:05:03;6.47;;;2.58;;
77591;SDS011;66891;46.884;17.436;2023-06-05T11:07:39;7.70;;;3.30;;
77591;SDS011;66891;46.884;17.436;2023-06-05T11:10:08;11.30;;;3.78;;
77591;SDS011;66891;46.884;17.436;2023-06-05T11:12:54;10.77;;;3.63;;
77591;SDS011;66891;46.884;17.436;2023-06-05T11:15:34;10.65;;;3.20;;
77591;SDS011;66891;46.884;17.436;2023-06-05T11:18:26;10.10;;;3.53;;
77591;SDS011;66891;46.884;17.436;2023-06-05T11:20:57;8.67;;;3.13;;
77591;SDS011;66891;46.884;17.436;2023-06-05T11:23:29;8.05;;;3.30;;
77591;SDS011;66891;46.884;17.436;2023-06-05T11:29:16;18.52;;;3.13;;
77591;SDS011;66891;46.884;17.436;2023-06-05T11:31:44;7.65;;;2.97;;
77591;SDS011;66891;46.884;17.436;2023-06-05T11:34:12;10.73;;;3.30;;
77591;SDS011;66891;46.884;17.436;2023-06-05T11:36:40;10.02;;;3.42;;
77591;SDS011;66891;46.884;17.436;2023-06-05T11:39:09;8.40;;;3.75;;
77591;SDS011;66891;46.884;17.436;2023-06-05T11:41:43;7.50;;;3.35;;
77591;SDS011;66891;46.884;17.436;2023-06-05T11:44:16;8.48;;;3.08;;
77591;SDS011;66891;46.884;17.436;2023-06-05T11:46:58;11.23;;;3.43;;
77591;SDS011;66891;46.884;17.436;2023-06-05T11:49:26;10.00;;;3.00;;
77591;SDS011;66891;46.884;17.436;2023-06-05T11:51:54;8.07;;;3.17;;
77591;SDS011;66891;46.884;17.436;2023-06-05T11:54:24;7.82;;;3.40;;
77591;SDS011;66891;46.884;17.436;2023-06-05T11:56:56;7.55;;;3.30;;
77591;SDS011;66891;46.884;17.436;2023-06-05T11:59:24;9.97;;;2.90;;
77591;SDS011;66891;46.884;17.436;2023-06-05T12:01:52;6.70;;;3.30;;
77591;SDS011;66891;46.884;17.436;2023-06-05T12:04:21;7.75;;;2.92;;
77591;SDS011;66891;46.884;17.436;2023-06-05T12:06:55;8.43;;;3.00;;
77591;SDS011;66891;46.884;17.436;2023-06-05T12:09:25;10.35;;;2.92;;
77591;SDS011;66891;46.884;17.436;2023-06-05T12:11:56;7.83;;;3.63;;
77591;SDS011;66891;46.884;17.436;2023-06-05T12:14:32;11.95;;;3.50;;
77591;SDS011;66891;46.884;17.436;2023-06-05T12:17:02;9.48;;;3.38;;
77591;SDS011;66891;46.884;17.436;2023-06-05T12:19:35;7.68;;;3.25;;
77591;SDS011;66891;46.884;17.436;2023-06-05T12:22:03;7.95;;;3.28;;
77591;SDS011;66891;46.884;17.436;2023-06-05T12:24:33;9.13;;;3.43;;
77591;SDS011;66891;46.884;17.436;2023-06-05T12:27:01;7.97;;;3.45;;
77591;SDS011;66891;46.884;17.436;2023-06-05T12:29:34;7.53;;;3.28;;
77591;SDS011;66891;46.884;17.436;2023-06-05T12:32:02;9.90;;;3.50;;
77591;SDS011;66891;46.884;17.436;2023-06-05T12:34:46;10.32;;;3.65;;
77591;SDS011;66891;46.884;17.436;2023-06-05T12:37:23;10.50;;;2.83;;
77591;SDS011;66891;46.884;17.436;2023-06-05T12:39:58;7.70;;;2.75;;
77591;SDS011;66891;46.884;17.436;2023-06-05T12:42:32;9.48;;;3.20;;
77591;SDS011;66891;46.884;17.436;2023-06-05T12:45:02;6.82;;;3.20;;
77591;SDS011;66891;46.884;17.436;2023-06-05T12:47:30;7.90;;;3.70;;
77591;SDS011;66891;46.884;17.436;2023-06-05T12:49:58;7.40;;;3.20;;
77591;SDS011;66891;46.884;17.436;2023-06-05T12:52:25;9.77;;;3.63;;
77591;SDS011;66891;46.884;17.436;2023-06-05T12:54:53;9.45;;;3.35;;
77591;SDS011;66891;46.884;17.436;2023-06-05T12:57:22;7.65;;;3.42;;
77591;SDS011;66891;46.884;17.436;2023-06-05T12:59:51;8.27;;;3.45;;
77591;SDS011;66891;46.884;17.436;2023-06-05T13:02:20;8.70;;;2.87;;
77591;SDS011;66891;46.884;17.436;2023-06-05T13:04:47;6.43;;;3.08;;
77591;SDS011;66891;46.884;17.436;2023-06-05T13:07:15;16.95;;;3.90;;
77591;SDS011;66891;46.884;17.436;2023-06-05T13:09:43;6.75;;;2.88;;
77591;SDS011;66891;46.884;17.436;2023-06-05T13:12:12;11.25;;;3.75;;
77591;SDS011;66891;46.884;17.436;2023-06-05T13:14:40;8.30;;;3.27;;
77591;SDS011;66891;46.884;17.436;2023-06-05T13:17:08;13.05;;;3.78;;
77591;SDS011;66891;46.884;17.436;2023-06-05T13:19:35;13.38;;;3.78;;
77591;SDS011;66891;46.884;17.436;2023-06-05T13:22:02;13.40;;;3.63;;
77591;SDS011;66891;46.884;17.436;2023-06-05T13:24:32;8.27;;;3.25;;
77591;SDS011;66891;46.884;17.436;2023-06-05T13:26:59;28.13;;;3.90;;
77591;SDS011;66891;46.884;17.436;2023-06-05T13:29:27;22.75;;;4.50;;
77591;SDS011;66891;46.884;17.436;2023-06-05T13:31:56;12.60;;;3.70;;
77591;SDS011;66891;46.884;17.436;2023-06-05T13:34:23;9.45;;;3.42;;
77591;SDS011;66891;46.884;17.436;2023-06-05T13:36:50;7.20;;;3.10;;
77591;SDS011;66891;46.884;17.436;2023-06-05T13:39:28;8.23;;;3.57;;
77591;SDS011;66891;46.884;17.436;2023-06-05T13:41:55;8.48;;;3.30;;
77591;SDS011;66891;46.884;17.436;2023-06-05T13:44:22;11.65;;;3.55;;
77591;SDS011;66891;46.884;17.436;2023-06-05T13:46:49;10.95;;;3.40;;
77591;SDS011;66891;46.884;17.436;2023-06-05T13:49:19;8.35;;;4.15;;
77591;SDS011;66891;46.884;17.436;2023-06-05T13:51:47;11.43;;;3.93;;
77591;SDS011;66891;46.884;17.436;2023-06-05T13:54:14;8.23;;;3.40;;
77591;SDS011;66891;46.884;17.436;2023-06-05T13:56:42;9.82;;;3.63;;
77591;SDS011;66891;46.884;17.436;2023-06-05T13:59:09;8.90;;;3.63;;
77591;SDS011;66891;46.884;17.436;2023-06-05T14:01:36;9.45;;;3.67;;
77591;SDS011;66891;46.884;17.436;2023-06-05T14:04:07;8.63;;;4.17;;
77591;SDS011;66891;46.884;17.436;2023-06-05T14:06:36;9.05;;;3.95;;
77591;SDS011;66891;46.884;17.436;2023-06-05T14:09:06;8.40;;;4.10;;
77591;SDS011;66891;46.884;17.436;2023-06-05T14:11:33;8.15;;;3.95;;
77591;SDS011;66891;46.884;17.436;2023-06-05T14:14:00;8.32;;;4.22;;
77591;SDS011;66891;46.884;17.436;2023-06-05T14:16:29;10.10;;;4.60;;
77591;SDS011;66891;46.884;17.436;2023-06-05T14:18:57;8.57;;;4.57;;
77591;SDS011;66891;46.884;17.436;2023-06-05T14:21:24;7.95;;;3.90;;
77591;SDS011;66891;46.884;17.436;2023-06-05T14:23:53;9.40;;;3.83;;
77591;SDS011;66891;46.884;17.436;2023-06-05T14:26:20;9.73;;;4.10;;
77591;SDS011;66891;46.884;17.436;2023-06-05T14:28:48;9.63;;;4.10;;
77591;SDS011;66891;46.884;17.436;2023-06-05T14:31:15;7.93;;;4.00;;
77591;SDS011;66891;46.884;17.436;2023-06-05T14:33:43;7.68;;;3.97;;
77591;SDS011;66891;46.884;17.436;2023-06-05T14:36:10;7.68;;;3.65;;
77591;SDS011;66891;46.884;17.436;2023-06-05T14:38:38;9.20;;;3.55;;
77591;SDS011;66891;46.884;17.436;2023-06-05T14:41:06;9.27;;;3.20;;
77591;SDS011;66891;46.884;17.436;2023-06-05T14:43:34;7.80;;;3.80;;
77591;SDS011;66891;46.884;17.436;2023-06-05T14:46:02;9.15;;;4.15;;
77591;SDS011;66891;46.884;17.436;2023-06-05T14:48:30;7.95;;;3.67;;
77591;SDS011;66891;46.884;17.436;2023-06-05T14:50:57;9.95;;;3.85;;
77591;SDS011;66891;46.884;17.436;2023-06-05T14:53:25;8.50;;;3.00;;